Home > Products > Valid Products > TAF

000
FTUS46 KMTR 021100
TAFSFO
TAF
KSFO 021126Z 0212/0318 VRB03KT P6SM SKC
     FM022300 30010KT P6SM SKC
     FM030400 VRB03KT P6SM SKC=



000
FTUS46 KMTR 021100
TAFSNS
TAF
KSNS 021126Z 0212/0312 10007KT P6SM SKC
     FM022100 29010KT P6SM SKC
     FM030300 VRB03KT P6SM SKC=



000
FTUS46 KMTR 021100
TAFSTS
TAF
KSTS 021126Z 0212/0312 00000KT P6SM SKC
     FM022100 20008KT P6SM SKC
     FM030200 VRB03KT P6SM SKC=



000
FTUS46 KMTR 021100
TAFOAK
TAF
KOAK 021126Z 0212/0318 VRB04KT P6SM SKC
     FM022000 29007KT P6SM SKC
     FM030500 VRB03KT P6SM SKC=



000
FTUS46 KMTR 021100
TAFMRY
TAF
KMRY 021126Z 0212/0312 VRB04KT P6SM SKC
     FM022100 29007KT P6SM SKC
     FM030200 VRB03KT P6SM SKC=



000
FTUS46 KMTR 021100
TAFSJC
TAF
KSJC 021126Z 0212/0312 VRB03KT P6SM SKC
     FM022000 31008KT P6SM SKC
     FM030400 VRB03KT P6SM SKC=



000
FTUS46 KMTR 020900 AAA
TAFSFO
TAF AMD
KSFO 020900Z 0209/0312 VRB03KT P6SM SKC
     FM022100 30010KT P6SM SKC
     FM030400 30006KT P6SM SKC=



000
FTUS46 KMTR 020500
TAFOAK
TAF
KOAK 020520Z 0206/0312 00000KT P6SM SKC
     FM020700 04003KT P6SM SKC
     FM021700 24003KT P6SM SKC
     FM022000 29009KT P6SM SKC
     FM030300 30005KT P6SM SKC
     FM030500 00000KT P6SM SKC=



000
FTUS46 KMTR 020500
TAFSNS
TAF
KSNS 020520Z 0206/0306 00000KT P6SM SKC
     FM021500 11010KT P6SM SKC
     FM022100 29011KT P6SM SKC
     FM030100 28005KT P6SM SKC
     FM030400 00000KT P6SM SKC=



000
FTUS46 KMTR 020500
TAFSTS
TAF
KSTS 020520Z 0206/0306 00000KT P6SM SKC
     FM022100 20008KT P6SM SKC
     FM030200 VRB03KT P6SM SKC=



000
FTUS46 KMTR 020500
TAFSJC
TAF
KSJC 020520Z 0206/0306 00000KT P6SM SKC
     FM021900 31007KT P6SM SKC
     FM030400 29005KT P6SM SKC=



000
FTUS46 KMTR 020500
TAFMRY
TAF
KMRY 020520Z 0206/0306 09003KT P6SM SKC
     FM021900 29007KT P6SM SKC
     FM030200 VRB03KT P6SM SKC=



000
FTUS46 KMTR 020500
TAFSFO
TAF
KSFO 020520Z 0206/0312 28004KT P6SM SKC
     FM020900 VRB03KT P6SM SKC
     FM022100 30010KT P6SM SKC
     FM030400 30006KT P6SM SKC=



000
FTUS46 KMTR 020300 AAA
TAFSFO
TAF AMD
KSFO 020306Z 0203/0306 28013KT P6SM SKC
     FM020400 29008KT P6SM SKC
     FM020900 VRB03KT P6SM SKC
     FM022100 30010KT P6SM SKC
     FM022200 30006KT P6SM SKC=



000
FTUS46 KMTR 012300
TAFSJC
TAF
KSJC 012334Z 0200/0224 30010KT P6SM SKC
     FM020400 VRB03KT P6SM SKC
     FM021900 31007KT P6SM SKC=



000
FTUS46 KMTR 012300
TAFMRY
TAF
KMRY 012334Z 0200/0224 28006KT P6SM SKC
     FM020300 VRB03KT P6SM SKC
     FM021900 30007KT P6SM SKC=



000
FTUS46 KMTR 012300
TAFOAK
TAF
KOAK 012334Z 0200/0306 28011KT P6SM SKC
     FM020400 30005KT P6SM SKC
     FM020700 04003KT P6SM SKC
     FM021700 24003KT P6SM SKC
     FM022000 29009KT P6SM SKC
     FM030400 30005KT P6SM SKC=



000
FTUS46 KMTR 012300
TAFSNS
TAF
KSNS 012334Z 0200/0224 26009KT P6SM SKC
     FM020400 VRB04KT P6SM SKC
     FM021500 11010KT P6SM SKC
     FM022100 29011KT P6SM SKC=



000
FTUS46 KMTR 012300
TAFSTS
TAF
KSTS 012334Z 0200/0224 VRB05KT P6SM SKC
     FM020300 VRB03KT P6SM SKC=



000
FTUS46 KMTR 012300
TAFSFO
TAF
KSFO 012334Z 0200/0306 28016KT P6SM SKC
     FM020400 29008KT P6SM SKC
     FM020900 VRB03KT P6SM SKC
     FM022100 30010KT P6SM SKC
     FM022200 30006KT P6SM SKC=



000
FTUS46 KMTR 011700
TAFSNS
TAF
KSNS 011723Z 0118/0218 VRB04KT P6SM SKC
     FM012000 28012KT P6SM SKC
     FM020300 VRB04KT P6SM SKC
     FM021400 11010KT P6SM SKC=



000
FTUS46 KMTR 011700
TAFSTS
TAF
KSTS 011723Z 0118/0218 33005KT P6SM SKC
     FM020300 VRB03KT P6SM SKC=



000
FTUS46 KMTR 011700
TAFOAK
TAF
KOAK 011723Z 0118/0224 25004KT P6SM SKC
     FM012200 30012KT P6SM SKC
     FM020400 32005KT P6SM SKC
     FM021200 04005KT P6SM SKC
     FM022100 30009KT P6SM SKC=



000
FTUS46 KMTR 011700
TAFMRY
TAF
KMRY 011723Z 0118/0218 VRB03KT P6SM SKC
     FM012100 30009KT P6SM SKC
     FM020400 09004KT P6SM SKC=



000
FTUS46 KMTR 011700
TAFSFO
TAF
KSFO 011723Z 0118/0224 VRB04KT P6SM SKC
     FM012300 29015KT P6SM SKC
     FM020500 VRB04KT P6SM SKC
     FM022100 30010KT P6SM SKC=



000
FTUS46 KMTR 011700
TAFSJC
TAF
KSJC 011723Z 0118/0218 30010KT P6SM SKC
     FM020300 VRB03KT P6SM SKC=



000
FTUS46 KMTR 011500 AAA
TAFSFO
TAF AMD
KSFO 011510Z 0115/0218 VRB03KT P6SM SKC
     FM011900 28009KT P6SM SKC
     FM012300 29015KT P6SM SKC
     FM020500 VRB04KT P6SM SKC=



000
FTUS46 KMTR 011100
TAFSFO
TAF
KSFO 011120Z 0112/0218 30005KT P6SM SKC
     FM011400 02005KT P6SM SKC
     FM012000 VRB03KT P6SM SKC
     FM012300 29015KT P6SM SKC
     FM020400 30010KT P6SM SKC
     FM020900 30005KT P6SM SKC=



000
FTUS46 KMTR 011100
TAFSTS
TAF
KSTS 011120Z 0112/0212 VRB03KT P6SM SKC
     FM011800 01007KT P6SM SKC=



000
FTUS46 KMTR 011100
TAFSNS
TAF
KSNS 011120Z 0112/0212 VRB04KT P6SM SKC
     FM012000 28012KT P6SM SKC
     FM020400 29007KT P6SM SKC
     FM020800 VRB03KT P6SM SKC=



000
FTUS46 KMTR 011100
TAFSJC
TAF
KSJC 011120Z 0112/0212 VRB03KT P6SM SKC
     FM012000 30010KT P6SM SKC
     FM020300 VRB03KT P6SM SKC=



000
FTUS46 KMTR 011100
TAFMRY
TAF
KMRY 011120Z 0112/0212 VRB03KT P6SM SKC
     FM012000 30009KT P6SM SKC
     FM020400 09004KT P6SM SKC=



000
FTUS46 KMTR 011100
TAFOAK
TAF
KOAK 011120Z 0112/0218 02005KT P6SM SKC
     FM012200 30012KT P6SM SKC
     FM020400 32005KT P6SM SKC
     FM021200 04005KT P6SM SKC=



000
FTUS46 KMTR 010800 AAA
TAFSFO
TAF AMD
KSFO 010851Z 0109/0212 30005KT P6SM SKC
     FM012300 29018KT P6SM SKC
     FM020400 30010KT P6SM SKC
     FM020900 30005KT P6SM SKC=



000
FTUS46 KMTR 010500
TAFOAK
TAF
KOAK 010520Z 0106/0212 31003KT P6SM SKC
     FM011200 02005KT P6SM SKC
     FM012200 30012KT P6SM SKC
     FM020400 35007KT P6SM SKC=



000
FTUS46 KMTR 010500
TAFSJC
TAF
KSJC 010520Z 0106/0206 VRB03KT P6SM SKC
     FM012000 30010KT P6SM SKC
     FM020300 30006KT P6SM SKC=



000
FTUS46 KMTR 010500
TAFSTS
TAF
KSTS 010520Z 0106/0206 VRB03KT P6SM SKC
     FM011800 35006KT P6SM SKC=



000
FTUS46 KMTR 010500
TAFSFO
TAF
KSFO 010520Z 0106/0212 30010KT P6SM SKC
     FM012300 29018KT P6SM SKC
     FM020400 30010KT P6SM SKC
     FM020900 30005KT P6SM SKC=



000
FTUS46 KMTR 010500
TAFSNS
TAF
KSNS 010520Z 0106/0206 VRB04KT P6SM SKC
     FM012000 28012KT P6SM SKC
     FM020400 29007KT P6SM SKC=



000
FTUS46 KMTR 010500
TAFMRY
TAF
KMRY 010520Z 0106/0206 VRB03KT P6SM SKC
     FM012000 30009KT P6SM SKC
     FM020400 29004KT P6SM SKC=



000
FTUS46 KMTR 010300 AAA
TAFSFO
TAF AMD
KSFO 010301Z 0103/0206 29010KT P6SM SKC
     FM012300 29018KT P6SM SKC
     FM020400 30010KT P6SM SKC=



000
FTUS46 KMTR 010100 AAA
TAFMRY
TAF AMD
KMRY 010128Z 0101/0124 26006KT P6SM FEW015
     FM010800 VRB03KT P6SM FEW015
     FM011800 30006KT P6SM SKC=



000
FTUS46 KMTR 302300
TAFSJC
TAF
KSJC 302320Z 0100/0124 29012KT P6SM SKC
     FM010400 VRB03KT P6SM SKC
     FM012000 30008KT P6SM SKC=



000
FTUS46 KMTR 302300
TAFSNS
TAF
KSNS 302320Z 0100/0124 27012KT P6SM SKC
     FM010500 VRB04KT P6SM SCT015
     FM011800 28010KT P6SM SKC=



000
FTUS46 KMTR 302300
TAFMRY
TAF
KMRY 302320Z 0100/0124 26008KT P6SM BKN015
     FM010400 VRB04KT P6SM BKN015
     FM010800 VRB03KT P6SM FEW015
     FM011800 30006KT P6SM SKC=



000
FTUS46 KMTR 302300
TAFSTS
TAF
KSTS 302320Z 0100/0124 21008KT P6SM SKC
     FM010400 VRB03KT P6SM SKC
     FM011400 VRB03KT 1/2SM FG VV002
     FM011700 35004KT P6SM SKC=



000
FTUS46 KMTR 302300
TAFSFO
TAF
KSFO 302320Z 0100/0206 29016KT P6SM FEW020
     FM010600 28008KT P6SM SKC
     FM012300 29018KT P6SM SKC=



000
FTUS46 KMTR 302300
TAFOAK
TAF
KOAK 302320Z 0100/0206 29010KT P6SM FEW014
     FM010500 31005KT P6SM SKC
     FM011200 02004KT P6SM FEW008
     FM012200 30010KT P6SM SKC=



000
FTUS46 KMTR 302100 AAA
TAFMRY
TAF AMD
KMRY 302146Z 3022/0118 27008KT P6SM OVC015
     FM302300 28009KT P6SM SCT015
     FM010400 VRB04KT P6SM BKN015
     FM010800 VRB03KT P6SM FEW015=



000
FTUS46 KMTR 302100 AAA
TAFSFO
TAF AMD
KSFO 302110Z 3021/0124 31010KT P6SM FEW010
     FM302200 28016KT P6SM FEW010
     FM010600 28006KT P6SM FEW008
     FM012300 30010KT P6SM SKC=



000
FTUS46 KMTR 301700 RRA
TAFMRY
TAF
KMRY 301741Z 3018/0118 30009KT P6SM FEW010
      TEMPO 3018/3020 BKN010
     FM010400 VRB04KT P6SM BKN015
     FM010800 VRB03KT P6SM FEW015=



000
FTUS46 KMTR 301700 RRA
TAFSNS
TAF
KSNS 301741Z 3018/0118 VRB03KT P6SM SCT010
     FM302200 28012KT P6SM SKC
     FM010500 VRB04KT P6SM SCT015=



000
FTUS46 KMTR 301700 RRA
TAFSJC
TAF
KSJC 301741Z 3018/0118 30004KT P6SM FEW005 SCT010
     FM302100 31012KT P6SM SKC
     FM010400 VRB03KT P6SM SKC=



000
FTUS46 KMTR 301700 RRA
TAFSFO
TAF
KSFO 301741Z 3018/0124 27009KT P6SM BKN008
     FM301815 29012KT P6SM FEW010
     FM302200 28018KT P6SM SKC
     FM010600 28006KT P6SM FEW008
     FM012300 30010KT P6SM SKC=



000
FTUS46 KMTR 301700 RRA
TAFOAK
TAF
KOAK 301741Z 3018/0124 VRB04KT P6SM OVC010
     FM301815 28012KT P6SM FEW010
     FM010500 31005KT P6SM SKC
     FM011200 02004KT P6SM FEW008
     FM012200 30010KT P6SM SKC=



000
FTUS46 KMTR 301700 RRA
TAFSTS
TAF
KSTS 301741Z 3018/0118 VRB03KT P6SM FEW005
     FM302300 27008KT P6SM SKC
     FM010400 VRB03KT P6SM SKC=



000
FTUS46 KMTR 301700 AAC
TAFSFO
TAF AMD
KSFO 301702Z 3017/0118 26008KT P6SM BKN008
     FM301815 27008KT P6SM FEW010
     FM302200 28018KT P6SM SKC
     FM010600 28008KT P6SM FEW008=



000
FTUS46 KMTR 301600 AAB
TAFSFO
TAF AMD
KSFO 301658Z 3017/0118 27009KT P6SM BKN008
     FM301815 27010KT P6SM FEW010
     FM302300 28018KT P6SM SKC
     FM010600 28008KT P6SM FEW008=



000
FTUS46 KMTR 301500 AAA
TAFSFO
TAF AMD
KSFO 301502Z 3015/0118 27009KT P6SM BKN008
     FM301700 27008KT P6SM SCT015
     FM301900 29012KT P6SM FEW010
     FM302300 28018KT P6SM SKC
     FM010600 28008KT P6SM FEW008=



000
FTUS46 KMTR 301500 AAA
TAFOAK
TAF AMD
KOAK 301502Z 3015/0118 VRB04KT P6SM OVC008
     FM301700 28008KT P6SM SCT012
     FM301900 28012KT P6SM SKC
     FM010500 31005KT P6SM SKC
     FM011200 02004KT P6SM FEW008=



000
FTUS46 KMTR 301400 AAA
TAFSTS
TAF AMD
KSTS 301415Z 3014/0112 VRB03KT 1/4SM FG OVC001
     FM301600 VRB03KT 2SM BR BKN002
     FM301700 VRB03KT P6SM SKC
     FM302300 27008KT P6SM SKC
     FM010400 VRB03KT P6SM SKC=



000
FTUS46 KMTR 301100
TAFOAK
TAF
KOAK 301125Z 3012/0118 VRB04KT P6SM OVC010
     FM301700 28008KT P6SM SCT012
     FM301900 28012KT P6SM SKC
     FM010500 31005KT P6SM SKC
     FM011200 02004KT P6SM FEW008=



000
FTUS46 KMTR 301100
TAFSTS
TAF
KSTS 301125Z 3012/0112 VRB03KT 1 1/2SM BR OVC002
     FM301600 VRB03KT P6SM SKC
     FM302300 27008KT P6SM SKC
     FM010400 VRB03KT P6SM SKC=



000
FTUS46 KMTR 301100
TAFSNS
TAF
KSNS 301125Z 3012/0112 26004KT P6SM OVC008
     FM301700 28004KT P6SM SKC
     FM302200 28012KT P6SM SKC
     FM010300 27007KT P6SM SKC=



000
FTUS46 KMTR 301100
TAFSJC
TAF
KSJC 301125Z 3012/0112 14005KT P6SM SKC
     FM302100 32010KT P6SM SKC
     FM010400 VRB03KT P6SM SKC=



000
FTUS46 KMTR 301100
TAFSFO
TAF
KSFO 301125Z 3012/0118 27012KT P6SM BKN012
     FM301700 27008KT P6SM SCT015
     FM301900 29012KT P6SM FEW010
     FM302300 28018KT P6SM SKC
     FM010600 28008KT P6SM FEW008=



000
FTUS46 KMTR 301100
TAFMRY
TAF
KMRY 301125Z 3012/0112 22003KT P6SM OVC008
     FM301900 28004KT P6SM SCT010
     FM302100 28008KT P6SM SKC
     FM010300 24004KT P6SM SKC
     FM010800 09004KT P6SM SKC=



000
FTUS46 KMTR 300900 AAA
TAFSFO
TAF AMD
KSFO 300906Z 3009/0112 27010KT P6SM OVC014
     FM301900 29009KT P6SM FEW010 SCT015
     FM302300 28018KT P6SM SKC
     FM010600 28008KT P6SM SKC=



000
FTUS46 KMTR 300800 AAA
TAFSTS
TAF AMD
KSTS 300814Z 3008/0106 14004KT P6SM SKC
     FM301100 VRB03KT 1 1/2SM BR OVC004
     FM301600 VRB03KT P6SM SKC
     FM302300 27008KT P6SM SKC=



000
FTUS46 KMTR 300500
TAFSTS
TAF
KSTS 300522Z 3006/0106 14004KT P6SM SKC
     FM300700 VRB03KT 1 1/2SM BR OVC004
     FM301600 VRB03KT P6SM SKC
     FM302300 27008KT P6SM SKC=



000
FTUS46 KMTR 300500
TAFSNS
TAF
KSNS 300522Z 3006/0106 30005KT P6SM SKC
     FM300800 26004KT P6SM OVC004
     FM301200 26004KT 3SM BR OVC003
     FM301700 28004KT P6SM SKC
     FM302200 28012KT P6SM SKC
     FM010300 27007KT P6SM SKC=



000
FTUS46 KMTR 300500
TAFOAK
TAF
KOAK 300522Z 3006/0112 29008KT P6SM SCT010
     FM300700 25005KT P6SM BKN010
     FM301000 VRB04KT P6SM OVC007
     FM301900 28011KT P6SM FEW007 SCT012
     FM010500 VRB04KT P6SM SKC=



000
FTUS46 KMTR 300500
TAFSFO
TAF
KSFO 300522Z 3006/0112 27010KT P6SM OVC014
     FM301900 29009KT P6SM FEW010 SCT015
     FM302300 28018KT P6SM SKC
     FM010600 28008KT P6SM SKC=



000
FTUS46 KMTR 300500
TAFSJC
TAF
KSJC 300522Z 3006/0106 32005KT P6SM SKC
     FM300900 VRB03KT P6SM BKN015
     FM301400 16005KT P6SM SCT015
     FM302100 32010KT P6SM SKC=



000
FTUS46 KMTR 300500
TAFMRY
TAF
KMRY 300522Z 3006/0106 20003KT P6SM OVC010
     FM302100 28008KT P6SM SKC
     FM010300 VRB04KT P6SM SKC=



000
FTUS46 KMTR 300500 AAA
TAFOAK
TAF AMD
KOAK 300504Z 3005/0106 25005KT P6SM BKN010
     FM301000 VRB04KT P6SM OVC007
     FM301900 28009KT P6SM FEW007 SCT012=



000
FTUS46 KMTR 300500 AAC
TAFMRY
TAF AMD
KMRY 300503Z 3005/3024 25004KT P6SM BKN010
     FM300800 21003KT 5SM BR OVC003
     FM301500 23004KT P6SM OVC010
     FM302100 28006KT P6SM SKC=



000
FTUS46 KMTR 300500 AAB
TAFSNS
TAF AMD
KSNS 300503Z 3005/3024 27009KT P6SM BKN015
     FM300700 26005KT P6SM BKN008
     FM300830 26004KT P6SM OVC004
     FM301200 26004KT 3SM BR OVC003
     FM301700 28004KT P6SM SKC=



000
FTUS46 KMTR 300200 CCA
TAFSFO
TAF COR
KSFO 300253Z 3003/0106 28018KT P6SM FEW014 SCT150
      TEMPO 3003/3005 BKN014
     FM300500 27010KT P6SM OVC014
     FM301900 29009KT P6SM FEW010 SCT015=



000
FTUS46 KMTR 300200 AAC
TAFSFO
TAF AMD
KSFO 300246Z 3003/0106 28018KT P6SM FEW010 SCT014
      TEMPO 3003/3005 BKN014
     FM300500 27010KT P6SM OVC014
     FM301900 29009KT P6SM FEW010 SCT015=



000
FTUS46 KMTR 300200 AAB
TAFMRY
TAF AMD
KMRY 300207Z 3002/3024 25004KT P6SM BKN010
     FM300500 21003KT 5SM BR OVC003
     FM301500 23004KT P6SM OVC010
     FM302100 28006KT P6SM SKC=



000
FTUS46 KMTR 300200 AAA
TAFSNS
TAF AMD
KSNS 300206Z 3002/3024 27009KT P6SM BKN015
     FM300400 26005KT P6SM BKN008
     FM300700 26004KT P6SM OVC004
     FM301200 26004KT 3SM BR OVC003
     FM301700 28004KT P6SM SKC=



000
FTUS46 KMTR 300200 AAB
TAFSFO
TAF AMD
KSFO 300206Z 3002/0106 28018KT P6SM FEW010 SCT014
      TEMPO 3003/3005 BKN014
     FM300500 27010KT P6SM OVC014
     FM301900 29009KT P6SM FEW010 SCT015=



000
FTUS46 KMTR 300000 AAA
TAFSFO
TAF AMD
KSFO 300035Z 3001/0106 28018KT P6SM FEW010 SCT014
      TEMPO 3002/3005 BKN014
     FM300500 27010KT P6SM OVC014
     FM301900 29009KT P6SM FEW010 SCT015=



000
FTUS46 KMTR 300000 AAA
TAFMRY
TAF AMD
KMRY 300004Z 3000/3024 29010KT P6SM BKN010
     FM300200 25004KT P6SM BKN006
     FM300500 21003KT 5SM BR OVC003
     FM301500 23004KT P6SM OVC010
     FM302100 28006KT P6SM SKC=



000
FTUS46 KMTR 292300
TAFSNS
TAF
KSNS 292326Z 3000/3024 27012KT P6SM SKC
     FM300400 26005KT P6SM BKN008
     FM300700 26004KT P6SM OVC004
     FM301200 26004KT 3SM BR OVC003
     FM301700 28004KT P6SM SKC=



000
FTUS46 KMTR 292300
TAFMRY
TAF
KMRY 292326Z 3000/3024 29010KT P6SM SKC
     FM300200 25004KT P6SM BKN006
     FM300500 21003KT 5SM BR OVC003
     FM301500 23004KT P6SM OVC010
     FM302100 28006KT P6SM SKC=



000
FTUS46 KMTR 292300
TAFSFO
TAF
KSFO 292326Z 3000/0106 28018KT P6SM FEW010 BKN014
     FM300500 27010KT P6SM OVC014
     FM301900 29009KT P6SM FEW010 SCT015=



000
FTUS46 KMTR 292300
TAFSJC
TAF
KSJC 292326Z 3000/3024 31010KT P6SM SKC
     FM300500 32005KT P6SM SKC
     FM300900 VRB03KT P6SM BKN015
     FM301600 VRB04KT P6SM SCT015=



000
FTUS46 KMTR 292300
TAFOAK
TAF
KOAK 292326Z 3000/0106 28012KT P6SM FEW020
     FM300400 29008KT P6SM SCT010
     FM300700 25005KT P6SM BKN010
     FM301000 VRB04KT P6SM OVC007
     FM301900 28009KT P6SM FEW007 SCT012=



000
FTUS46 KMTR 292300
TAFSTS
TAF
KSTS 292326Z 3000/3024 19008KT P6SM FEW050
     FM300400 14004KT P6SM SKC
     FM300700 VRB03KT 1 1/2SM BR OVC004
     FM301600 VRB03KT P6SM SKC=



000
FTUS46 KMTR 292300 AAA
TAFSJC
TAF AMD
KSJC 292307Z 2923/3018 29010KT P6SM FEW040
     FM300500 32005KT P6SM SKC
     FM300900 VRB03KT P6SM BKN015
     FM301600 VRB04KT P6SM SCT015=



000
FTUS46 KMTR 292200 AAC
TAFSFO
TAF AMD
KSFO 292256Z 2923/3024 28018KT P6SM FEW010
      TEMPO 2923/2924 BKN010
     FM300000 28018KT P6SM BKN010
     FM300500 27010KT P6SM OVC010
     FM301900 29009KT P6SM FEW010 SCT015=



000
FTUS46 KMTR 292100 AAB
TAFSFO
TAF AMD
KSFO 292100Z 2921/3024 28016KT P6SM FEW010
     FM300500 28009KT P6SM BKN010
     FM301200 29006KT P6SM BKN007
     FM301900 29009KT P6SM FEW007 SCT012=



000
FTUS46 KMTR 291900 AAA
TAFSFO
TAF AMD
KSFO 291929Z 2919/3024 28010KT P6SM FEW010 SCT018
     FM292100 28016KT P6SM FEW010
     FM300500 28009KT P6SM BKN010
     FM301200 29006KT P6SM BKN007
     FM301900 29009KT P6SM FEW007 SCT012=



000
FTUS46 KMTR 291700
TAFSJC
TAF
KSJC 291737Z 2918/3018 33004KT P6SM FEW010 SCT015
     FM292100 31010KT P6SM SKC
     FM300500 32005KT P6SM SKC
     FM300900 VRB03KT P6SM BKN015
     FM301600 VRB04KT P6SM SCT015=



000
FTUS46 KMTR 291700
TAFSFO
TAF
KSFO 291737Z 2918/3024 28006KT P6SM BKN007 BKN012
     FM291900 VRB03KT P6SM SCT010
     FM292100 28016KT P6SM FEW010
     FM300500 28009KT P6SM BKN010
     FM301200 29006KT P6SM BKN007
     FM301900 29009KT P6SM FEW007 SCT012=



000
FTUS46 KMTR 291700
TAFMRY
TAF
KMRY 291737Z 2918/3018 27005KT 3SM BR OVC002
     FM291900 29010KT P6SM SKC
     FM300200 25004KT P6SM BKN006
     FM300500 21003KT 5SM BR OVC003
     FM301500 23004KT P6SM OVC007=



000
FTUS46 KMTR 291700
TAFSTS
TAF
KSTS 291737Z 2918/3018 00000KT 3SM BR OVC002
     FM291900 VRB03KT P6SM SKC
     FM292200 19008KT P6SM FEW050
     FM300400 14004KT P6SM SKC
     FM300700 VRB03KT 1 1/2SM BR OVC004=



000
FTUS46 KMTR 291700
TAFSNS
TAF
KSNS 291737Z 2918/3018 14005KT P6SM FEW005
     FM292000 27008KT P6SM SKC
     FM300400 26005KT P6SM BKN008
     FM300700 26004KT P6SM OVC004
     FM301200 26004KT 3SM BR OVC003
     FM301700 28004KT P6SM SCT007=



000
FTUS46 KMTR 291700
TAFOAK
TAF
KOAK 291737Z 2918/3024 27007KT P6SM OVC009
     FM291930 28012KT P6SM FEW020
     FM300400 29008KT P6SM SCT010
     FM300700 25005KT P6SM BKN010
     FM301000 VRB04KT P6SM OVC007
     FM301900 28008KT P6SM FEW007 SCT012=



000
FTUS46 KMTR 291600 AAA
TAFSTS
TAF AMD
KSTS 291657Z 2917/3012 00000KT 3SM BR OVC005
      TEMPO 2917/2918 1/2SM FG OVC002
     FM291900 VRB03KT P6SM SKC
     FM292200 19008KT P6SM FEW050
     FM300400 14004KT P6SM SKC=



000
FTUS46 KMTR 291600 AAB
TAFMRY
TAF AMD
KMRY 291637Z 2917/3012 VRB04KT 1SM BR BKN008
     FM291800 29010KT P6SM SKC
     FM300200 25004KT P6SM BKN006
     FM300500 21003KT P6SM OVC003=



000
FTUS46 KMTR 291600 AAB
TAFSFO
TAF AMD
KSFO 291631Z 2917/3018 28006KT P6SM BKN007 BKN012
     FM291830 04004KT P6SM SCT012
     FM291900 VRB03KT P6SM FEW010
     FM292100 28016KT P6SM FEW010
     FM300400 29012KT P6SM FEW010
     FM301200 29006KT P6SM BKN007=



000
FTUS46 KMTR 291500 AAB
TAFSNS
TAF AMD
KSNS 291554Z 2916/3012 13004KT 3SM BR OVC003
     FM291645 14005KT P6SM FEW003 FEW015
     FM292000 27008KT P6SM SKC
     FM300400 26005KT P6SM BKN008
     FM300700 26004KT P6SM OVC004=



000
FTUS46 KMTR 291400 AAA
TAFSFO
TAF AMD
KSFO 291456Z 2915/3018 28006KT P6SM SCT008 BKN012
     FM291730 04004KT P6SM SCT012
     FM291900 VRB03KT P6SM FEW010
     FM292100 28016KT P6SM FEW010
     FM300400 29012KT P6SM FEW010
     FM301200 29006KT P6SM BKN007=



    US Dept of Commerce
    National Oceanic and Atmospheric Administration
    National Weather Service
    1325 East West Highway
    Silver Spring, MD 20910
    Page Author: NWS Internet Services Team
Disclaimer
Information Quality
Credits
Glossary
Privacy Policy
Freedom of Information Act (FOIA)
About Us
Career Opportunities